Time;durP1;ratioP1;P1;durP2;ratioP2;P2;SDS_P1;SDS_P2;PMS_P1;PMS_P2;Temp;Humidity;BMP_temperature;BMP_pressure;BME280_temperature;BME280_humidity;BME280_pressure;Samples;Min_cycle;Max_cycle;Signal;HPM_P1;HPM_P2
2023/12/25 00:00:50;;;;;;;17.50;15.57;;;;;;;21.69;29.86;94884.09;6122898;28;110037;-68
2023/12/25 00:03:55;;;;;;;17.30;13.40;;;;;;;21.67;30.01;94889.72;6128371;28;110175;-60
2023/12/25 00:06:58;;;;;;;15.00;12.57;;;;;;;21.70;30.06;94896.34;6119148;28;109467;-60
2023/12/25 00:10:01;;;;;;;15.37;12.30;;;;;;;21.71;29.60;94892.56;6110630;28;109212;-59
2023/12/25 00:13:05;;;;;;;14.73;13.13;;;;;;;21.70;29.67;94877.69;6123719;28;110197;-60
2023/12/25 00:16:08;;;;;;;13.67;12.17;;;;;;;21.71;29.73;94874.72;6116643;28;109518;-59
2023/12/25 00:19:12;;;;;;;14.37;12.87;;;;;;;21.71;29.46;94872.06;6109104;28;109081;-59
2023/12/25 00:22:15;;;;;;;13.80;12.23;;;;;;;21.72;29.94;94876.28;6112233;28;109985;-59
2023/12/25 00:25:18;;;;;;;12.63;11.20;;;;;;;21.72;29.53;94870.19;6127529;28;109294;-60
2023/12/25 00:28:21;;;;;;;12.37;11.10;;;;;;;21.72;29.45;94868.28;6125250;28;109554;-60
2023/12/25 00:31:24;;;;;;;12.53;11.00;;;;;;;21.71;29.65;94871.28;6120542;28;109279;-59
2023/12/25 00:34:29;;;;;;;17.50;11.50;;;;;;;21.69;29.86;94873.47;6125882;28;109054;-60
2023/12/25 00:37:32;;;;;;;13.63;11.50;;;;;;;21.67;29.84;94871.06;6124330;28;108855;-61
2023/12/25 00:40:35;;;;;;;12.30;10.70;;;;;;;21.66;29.54;94866.84;6125814;28;109036;-65
2023/12/25 00:43:43;;;;;;;11.63;10.43;;;;;;;21.65;30.03;94867.16;6121671;28;110223;-60
2023/12/25 00:46:46;;;;;;;11.70;9.90;;;;;;;21.64;29.39;94860.25;6129474;28;109415;-60
2023/12/25 00:49:51;;;;;;;12.30;10.57;;;;;;;21.64;29.71;94876.22;6119896;28;110226;-60
2023/12/25 00:52:54;;;;;;;10.80;9.70;;;;;;;21.63;29.51;94866.69;6135647;28;109700;-60
2023/12/25 00:55:57;;;;;;;11.97;10.53;;;;;;;21.63;29.47;94883.44;6106252;28;109107;-60
2023/12/25 00:59:00;;;;;;;10.63;9.63;;;;;;;21.60;29.36;94883.28;6120460;28;109656;-60
2023/12/25 01:02:03;;;;;;;12.50;10.30;;;;;;;21.63;29.61;94877.31;6132621;28;110006;-61
2023/12/25 01:05:09;;;;;;;11.57;10.17;;;;;;;21.64;29.39;94878.91;6113194;28;109185;-58
2023/12/25 01:08:13;;;;;;;10.40;9.40;;;;;;;21.63;29.95;94864.78;6127546;28;109340;-58
2023/12/25 01:11:16;;;;;;;11.07;9.97;;;;;;;21.62;29.82;94862.44;6136558;28;110148;-58
2023/12/25 01:14:19;;;;;;;11.07;9.80;;;;;;;21.62;29.59;94881.09;6119616;28;108867;-58
2023/12/25 01:17:22;;;;;;;10.70;9.20;;;;;;;21.60;29.75;94889.38;6116771;28;109343;-58
2023/12/25 01:20:27;;;;;;;12.50;11.20;;;;;;;21.58;29.52;94872.94;6113478;28;109214;-65
2023/12/25 01:23:30;;;;;;;11.07;9.93;;;;;;;21.59;29.46;94857.75;6123035;28;109142;-58
2023/12/25 01:26:33;;;;;;;10.20;9.10;;;;;;;21.55;29.42;94860.22;6112574;28;109586;-58
2023/12/25 01:29:36;;;;;;;11.10;8.67;;;;;;;21.57;29.55;94858.03;6101821;28;109068;-58
2023/12/25 01:32:39;;;;;;;9.57;8.57;;;;;;;21.56;29.69;94855.69;6112739;28;109282;-58
2023/12/25 01:35:44;;;;;;;10.23;9.23;;;;;;;21.55;29.20;94870.88;6133351;28;108952;-58
2023/12/25 01:38:47;;;;;;;11.80;9.17;;;;;;;21.55;29.30;94854.13;6109387;28;109187;-58
2023/12/25 01:41:50;;;;;;;10.33;8.87;;;;;;;21.56;29.68;94851.16;6130001;28;108964;-59
2023/12/25 01:44:53;;;;;;;9.53;8.53;;;;;;;21.56;29.33;94855.69;6134275;28;110046;-59
2023/12/25 01:47:56;;;;;;;10.13;8.70;;;;;;;21.51;29.35;94849.41;6137115;28;110143;-58
2023/12/25 01:51:03;;;;;;;10.63;9.53;;;;;;;21.57;29.51;94854.59;6117354;28;108986;-58
2023/12/25 01:54:07;;;;;;;10.63;9.37;;;;;;;21.54;29.56;94860.53;6117555;28;109030;-58
2023/12/25 01:57:10;;;;;;;11.33;10.00;;;;;;;21.55;29.39;94860.22;6129514;28;109159;-58
2023/12/25 02:00:15;;;;;;;11.57;9.60;;;;;;;21.48;29.37;94865.19;6129664;28;110211;-54
2023/12/25 02:03:18;;;;;;;10.47;9.13;;;;;;;21.50;29.28;94863.78;6116594;28;109055;-53
2023/12/25 02:06:23;;;;;;;9.87;8.93;;;;;;;21.49;29.36;94858.78;6119040;28;110296;-53
2023/12/25 02:09:26;;;;;;;12.10;9.20;;;;;;;21.49;29.47;94870.22;6130375;28;110185;-53
2023/12/25 02:12:30;;;;;;;10.60;9.17;;;;;;;21.48;29.74;94881.94;6128688;28;109007;-55
2023/12/25 02:15:33;;;;;;;9.53;8.20;;;;;;;21.55;29.37;94870.09;6109923;28;111479;-60
2023/12/25 02:18:36;;;;;;;13.10;9.00;;;;;;;21.52;29.17;94877.59;6132912;28;110061;-60
2023/12/25 02:21:42;;;;;;;9.97;8.97;;;;;;;21.47;29.03;94877.72;6126933;28;109046;-60
2023/12/25 02:24:52;;;;;;;9.60;8.30;;;;;;;21.38;29.19;94873.44;6117316;28;109032;-60
2023/12/25 02:27:56;;;;;;;9.53;8.27;;;;;;;21.35;29.00;94864.22;6132153;28;109463;-60
2023/12/25 02:31:00;;;;;;;8.83;7.20;;;;;;;21.36;29.60;94857.00;6123663;28;109544;-59
2023/12/25 02:34:03;;;;;;;11.10;7.73;;;;;;;21.39;29.08;94869.69;6127586;28;109025;-59
2023/12/25 02:37:06;;;;;;;11.90;9.50;;;;;;;21.37;29.38;94870.00;6123069;28;109611;-60
2023/12/25 02:40:10;;;;;;;11.40;9.07;;;;;;;21.40;29.61;94856.09;6128359;28;109193;-59
2023/12/25 02:43:15;;;;;;;10.50;8.53;;;;;;;21.40;29.51;94858.75;6119547;28;109085;-59
2023/12/25 02:46:18;;;;;;;11.73;9.40;;;;;;;21.36;29.50;94851.69;6124685;28;109208;-59
2023/12/25 02:49:21;;;;;;;10.33;7.83;;;;;;;21.43;29.14;94868.78;6123883;28;110045;-59
2023/12/25 02:52:24;;;;;;;10.17;8.70;;;;;;;21.44;29.26;94869.56;6131234;28;109186;-59
2023/12/25 02:55:27;;;;;;;9.57;8.67;;;;;;;21.42;29.20;94851.25;6117739;28;109960;-60
2023/12/25 02:58:32;;;;;;;9.83;8.10;;;;;;;21.42;29.20;94867.22;6121223;28;111473;-61
2023/12/25 03:01:35;;;;;;;9.57;8.30;;;;;;;21.41;29.33;94867.50;6110990;28;110016;-60
2023/12/25 03:04:38;;;;;;;10.93;8.90;;;;;;;21.44;29.55;94865.03;6129430;28;109202;-59
2023/12/25 03:07:41;;;;;;;9.10;8.00;;;;;;;21.45;29.48;94882.56;6124429;28;110729;-59
2023/12/25 03:10:44;;;;;;;8.57;7.67;;;;;;;21.40;29.30;94888.03;6106382;28;109382;-59
2023/12/25 03:13:48;;;;;;;11.77;7.80;;;;;;;21.40;29.35;94887.25;6118713;28;108858;-59
2023/12/25 03:16:52;;;;;;;12.70;6.97;;;;;;;21.37;29.24;94875.34;6115607;28;110215;-59
2023/12/25 03:19:55;;;;;;;9.43;6.87;;;;;;;21.41;29.21;94873.63;6119798;28;109513;-60
2023/12/25 03:22:58;;;;;;;8.60;6.80;;;;;;;21.37;29.04;94890.53;6120739;28;110560;-59
2023/12/25 03:26:01;;;;;;;7.83;7.03;;;;;;;21.20;29.06;94891.19;6119533;28;110489;-61
2023/12/25 03:29:06;;;;;;;9.20;7.97;;;;;;;21.19;29.01;94895.72;6125796;28;109192;-61
2023/12/25 03:32:09;;;;;;;7.97;7.00;;;;;;;21.19;28.96;94897.59;6115846;28;109044;-61
2023/12/25 03:35:12;;;;;;;8.93;7.20;;;;;;;21.19;29.09;94906.38;6114168;28;110124;-61
2023/12/25 03:38:15;;;;;;;11.30;6.93;;;;;;;21.31;29.45;94911.13;6136761;28;109070;-63
2023/12/25 03:41:20;;;;;;;8.83;6.40;;;;;;;21.29;29.59;94915.19;6119745;28;109125;-61
2023/12/25 03:44:24;;;;;;;8.60;6.80;;;;;;;21.24;29.23;94917.97;6118766;28;110145;-61
2023/12/25 03:47:28;;;;;;;7.43;6.63;;;;;;;20.83;29.33;94922.31;6119144;28;109394;-61
2023/12/25 03:50:32;;;;;;;9.47;6.57;;;;;;;20.88;29.19;94922.22;6115217;28;109042;-61
2023/12/25 03:53:35;;;;;;;10.80;7.30;;;;;;;20.82;29.30;94923.41;6118733;28;109378;-61
2023/12/25 03:56:38;;;;;;;9.63;6.70;;;;;;;21.00;29.46;94923.53;6121389;28;110340;-61
2023/12/25 03:59:42;;;;;;;8.87;7.00;;;;;;;20.97;29.36;94924.94;6129320;28;109227;-61
2023/12/25 04:02:45;;;;;;;7.60;6.80;;;;;;;20.85;29.15;94930.81;6128018;28;109094;-61
2023/12/25 04:05:49;;;;;;;7.40;6.47;;;;;;;20.98;29.20;94929.16;6127578;28;108925;-61
2023/12/25 04:08:52;;;;;;;9.63;6.87;;;;;;;20.84;29.25;94923.13;6112464;28;109128;-61
2023/12/25 04:11:55;;;;;;;8.37;6.90;;;;;;;20.80;29.37;94933.56;6118598;28;109039;-61
2023/12/25 04:15:00;;;;;;;8.00;6.20;;;;;;;20.82;29.54;94923.41;6121795;28;109997;-61
2023/12/25 04:18:04;;;;;;;8.00;5.77;;;;;;;20.55;29.69;94924.28;6121879;28;110025;-62
2023/12/25 04:21:07;;;;;;;9.10;6.70;;;;;;;20.84;29.51;94937.22;6116161;28;108998;-61
2023/12/25 04:24:10;;;;;;;10.37;5.80;;;;;;;20.62;29.65;94932.63;6121541;28;110514;-61
2023/12/25 04:27:13;;;;;;;8.90;5.80;;;;;;;20.82;29.61;94927.94;6114817;28;110526;-61
2023/12/25 04:30:18;;;;;;;8.57;6.03;;;;;;;20.89;29.50;94931.00;6103394;28;109192;-60
2023/12/25 04:33:21;;;;;;;9.40;6.63;;;;;;;21.01;29.30;94933.91;6125712;28;110082;-61
2023/12/25 04:36:24;;;;;;;9.70;7.00;;;;;;;21.06;29.41;94941.00;6127832;28;111592;-58
2023/12/25 04:39:27;;;;;;;7.70;5.70;;;;;;;21.08;29.10;94930.84;6128677;28;110451;-58
2023/12/25 04:42:30;;;;;;;7.67;5.67;;;;;;;21.09;29.01;94924.44;6116687;28;109649;-53
2023/12/25 04:45:34;;;;;;;12.87;6.20;;;;;;;21.34;29.30;94936.34;6120596;28;109167;-53
2023/12/25 04:48:37;;;;;;;9.20;5.50;;;;;;;21.49;29.02;94920.78;6126514;28;110208;-53
2023/12/25 04:51:41;;;;;;;6.80;4.70;;;;;;;21.63;28.96;94938.56;6113087;28;108982;-53
2023/12/25 04:54:44;;;;;;;8.27;5.00;;;;;;;21.72;28.75;94942.88;6126776;28;110153;-53
2023/12/25 04:57:47;;;;;;;6.67;4.50;;;;;;;21.80;28.91;94938.66;6126092;28;109525;-57
2023/12/25 05:00:51;;;;;;;7.17;5.10;;;;;;;21.85;28.87;94940.47;6130368;28;111020;-53
2023/12/25 05:03:54;;;;;;;7.57;4.73;;;;;;;21.90;28.47;94943.78;6114471;28;109254;-53
2023/12/25 05:06:57;;;;;;;6.00;4.40;;;;;;;21.95;28.63;94934.84;6112708;28;109038;-53
2023/12/25 05:10:00;;;;;;;5.30;4.20;;;;;;;21.96;28.78;94917.78;6127858;28;109189;-53
2023/12/25 05:13:04;;;;;;;5.53;4.50;;;;;;;22.01;28.70;94923.75;6119027;28;109156;-53
2023/12/25 05:16:08;;;;;;;5.17;4.03;;;;;;;22.02;28.49;94912.00;6112290;28;109689;-53
2023/12/25 05:19:12;;;;;;;5.43;3.90;;;;;;;22.04;28.74;94909.81;6130747;28;109415;-53
2023/12/25 05:22:16;;;;;;;9.00;5.03;;;;;;;22.09;28.98;94923.00;6139800;28;108912;-53
2023/12/25 05:25:19;;;;;;;4.77;4.00;;;;;;;22.11;28.89;94941.34;6117947;28;110165;-53
2023/12/25 05:28:22;;;;;;;4.80;4.30;;;;;;;22.14;29.05;94939.94;6120812;28;109218;-53
2023/12/25 05:31:27;;;;;;;6.37;4.63;;;;;;;22.15;28.81;94955.63;6125708;28;109104;-53
2023/12/25 05:34:30;;;;;;;5.03;4.20;;;;;;;22.17;29.05;94944.66;6126278;28;109197;-56
2023/12/25 05:37:33;;;;;;;5.57;4.50;;;;;;;22.18;29.01;94935.56;6119100;28;109181;-54
2023/12/25 05:40:36;;;;;;;6.40;3.90;;;;;;;22.21;29.07;94930.41;6117258;28;110148;-53
2023/12/25 05:43:39;;;;;;;4.27;3.70;;;;;;;22.21;28.70;94937.63;6127263;28;109166;-53
2023/12/25 05:46:44;;;;;;;4.57;3.57;;;;;;;22.21;28.99;94940.28;6140975;28;108975;-53
2023/12/25 05:49:47;;;;;;;4.80;3.83;;;;;;;22.23;29.35;94960.22;6119028;28;110073;-53
2023/12/25 05:52:50;;;;;;;7.00;4.03;;;;;;;22.23;29.08;94967.41;6134069;28;108931;-53
2023/12/25 05:55:53;;;;;;;4.80;4.07;;;;;;;22.23;28.82;94960.22;6116860;28;109414;-54
2023/12/25 05:58:56;;;;;;;4.30;3.90;;;;;;;22.24;28.90;94951.13;6119763;28;109093;-53
2023/12/25 06:02:00;;;;;;;5.67;3.90;;;;;;;22.23;29.04;94944.22;6126900;28;109596;-53
2023/12/25 06:05:04;;;;;;;4.73;3.77;;;;;;;22.28;29.14;94952.06;6125509;28;109266;-53
2023/12/25 06:08:09;;;;;;;4.60;3.40;;;;;;;22.26;28.98;94964.91;6139371;28;109607;-53
2023/12/25 06:11:12;;;;;;;3.83;3.20;;;;;;;22.29;29.26;94966.19;6121710;28;109049;-54
2023/12/25 06:14:15;;;;;;;4.13;3.60;;;;;;;22.30;28.90;94986.41;6115254;28;109183;-54
2023/12/25 06:17:19;;;;;;;4.73;3.80;;;;;;;22.28;29.40;94993.94;6124887;28;109045;-74
2023/12/25 06:20:24;;;;;;;4.53;3.63;;;;;;;22.32;29.34;95008.22;6138715;28;109079;-54
2023/12/25 06:23:28;;;;;;;5.80;4.00;;;;;;;22.30;29.07;95008.53;6107026;28;109212;-53
2023/12/25 06:26:31;;;;;;;4.83;3.60;;;;;;;22.32;29.06;95010.88;6116028;28;109792;-54
2023/12/25 06:29:34;;;;;;;4.57;3.90;;;;;;;22.34;29.70;94998.03;6118535;28;110711;-54
2023/12/25 06:32:40;;;;;;;4.40;4.00;;;;;;;22.36;28.97;95023.31;6131809;28;109088;-53
2023/12/25 06:35:43;;;;;;;5.67;3.70;;;;;;;22.37;29.72;95018.75;6108855;28;109253;-54
2023/12/25 06:38:46;;;;;;;4.57;3.63;;;;;;;22.26;29.60;95018.22;6131403;28;109173;-56
2023/12/25 06:41:50;;;;;;;4.77;3.73;;;;;;;22.21;29.92;94998.94;6119365;28;108975;-57
2023/12/25 06:44:53;;;;;;;7.37;4.70;;;;;;;22.21;30.42;94996.25;6123782;28;109075;-57
2023/12/25 06:47:57;;;;;;;7.20;4.63;;;;;;;22.24;30.62;94996.44;6115703;28;110572;-56
2023/12/25 06:51:01;;;;;;;6.60;5.77;;;;;;;22.20;30.97;94998.16;6129658;28;109110;-57
2023/12/25 06:54:04;;;;;;;6.53;5.70;;;;;;;22.18;31.36;94991.53;6132898;28;109037;-57
2023/12/25 06:57:07;;;;;;;6.10;5.50;;;;;;;22.19;31.33;95009.91;6122685;28;109275;-68
2023/12/25 07:00:12;;;;;;;9.20;5.53;;;;;;;22.26;31.79;95004.91;6129309;28;109400;-57
2023/12/25 07:03:17;;;;;;;6.73;5.30;;;;;;;22.76;31.01;95022.53;6128349;28;111023;-58
2023/12/25 07:06:20;;;;;;;6.70;5.50;;;;;;;23.21;30.35;95021.19;6138965;28;111243;-52
2023/12/25 07:09:23;;;;;;;11.47;6.20;;;;;;;23.36;30.80;95016.53;6115224;28;110103;-54
2023/12/25 07:12:26;;;;;;;8.63;5.77;;;;;;;23.40;30.55;95010.22;6132450;28;110524;-56
2023/12/25 07:15:29;;;;;;;7.37;6.10;;;;;;;23.33;30.93;95023.25;6131988;28;109164;-57
2023/12/25 07:18:33;;;;;;;8.53;6.00;;;;;;;23.45;30.84;95030.63;6127927;28;109258;-56
2023/12/25 07:21:37;;;;;;;11.50;6.50;;;;;;;23.56;30.96;95032.69;6115671;28;109018;-58
2023/12/25 07:24:40;;;;;;;12.93;6.43;;;;;;;23.64;30.63;95024.97;6130455;28;110021;-57
2023/12/25 07:27:43;;;;;;;10.33;5.83;;;;;;;23.60;30.68;95030.16;6128070;28;111300;-57
2023/12/25 07:30:46;;;;;;;11.50;7.20;;;;;;;23.23;31.55;95029.66;6123969;28;110084;-58
2023/12/25 07:33:51;;;;;;;10.40;7.23;;;;;;;22.99;32.62;95035.44;6113199;28;109035;-58
2023/12/25 07:36:54;;;;;;;8.80;7.80;;;;;;;22.83;33.24;95026.28;6132232;28;108848;-63
2023/12/25 07:39:58;;;;;;;10.80;8.13;;;;;;;22.73;32.93;95023.16;6114989;28;109218;-56
2023/12/25 07:43:01;;;;;;;12.60;7.80;;;;;;;22.67;32.45;95039.28;6111300;28;109491;-56
2023/12/25 07:46:06;;;;;;;10.10;8.00;;;;;;;22.70;32.41;95046.69;6130625;28;109246;-56
2023/12/25 07:49:11;;;;;;;10.83;7.20;;;;;;;22.59;32.59;95053.38;6127881;28;109202;-56
2023/12/25 07:52:14;;;;;;;10.20;7.40;;;;;;;22.61;32.19;95045.84;6125650;28;109237;-56
2023/12/25 07:55:17;;;;;;;11.10;7.40;;;;;;;22.60;32.40;95052.28;6116392;28;110096;-56
2023/12/25 07:58:20;;;;;;;10.03;7.33;;;;;;;22.62;33.03;95043.97;6117448;28;109231;-56
2023/12/25 08:01:23;;;;;;;11.30;7.47;;;;;;;22.51;32.65;95051.41;6115879;28;109193;-56
2023/12/25 08:04:28;;;;;;;9.80;7.20;;;;;;;22.53;32.42;95053.81;6134822;28;109092;-57
2023/12/25 08:07:31;;;;;;;7.03;6.33;;;;;;;22.51;32.98;95061.28;6119753;28;109467;-59
2023/12/25 08:10:34;;;;;;;9.20;6.63;;;;;;;22.47;32.91;95055.81;6118719;28;109953;-59
2023/12/25 08:13:38;;;;;;;9.00;6.13;;;;;;;22.49;32.47;95058.16;6127477;28;109475;-60
2023/12/25 08:16:41;;;;;;;10.23;6.77;;;;;;;22.46;32.83;95056.91;6121848;28;110164;-62
2023/12/25 08:19:45;;;;;;;8.67;6.27;;;;;;;22.46;32.77;95066.78;6123993;28;109379;-59
2023/12/25 08:22:48;;;;;;;7.00;6.30;;;;;;;22.41;32.95;95068.50;6126589;28;109078;-62
2023/12/25 08:25:51;;;;;;;10.47;6.03;;;;;;;22.43;32.52;95065.50;6123476;28;109969;-61
2023/12/25 08:28:54;;;;;;;7.60;5.30;;;;;;;22.44;33.10;95060.97;6117826;28;110365;-60
2023/12/25 08:31:58;;;;;;;7.83;5.73;;;;;;;22.42;33.24;95062.06;6119097;28;109084;-60
2023/12/25 08:35:03;;;;;;;6.73;5.20;;;;;;;22.46;33.51;95054.22;6114504;28;110231;-61
2023/12/25 08:38:06;;;;;;;7.80;5.60;;;;;;;22.45;33.06;95054.53;6121005;28;108815;-60
2023/12/25 08:41:09;;;;;;;7.13;5.67;;;;;;;22.45;33.23;95058.00;6116232;28;109165;-61
2023/12/25 08:44:12;;;;;;;8.57;5.20;;;;;;;22.42;33.05;95050.59;6117981;28;110347;-61
2023/12/25 08:47:15;;;;;;;8.50;5.20;;;;;;;22.42;32.94;95053.28;6117959;28;109688;-60
2023/12/25 08:50:20;;;;;;;6.83;4.77;;;;;;;22.39;33.22;95046.69;6121790;28;110203;-60
2023/12/25 08:53:23;;;;;;;7.57;5.90;;;;;;;22.37;33.04;95040.88;6126119;28;109039;-62
2023/12/25 08:56:27;;;;;;;10.37;5.70;;;;;;;22.40;33.56;95031.47;6118289;28;109027;-63
2023/12/25 08:59:31;;;;;;;5.43;4.63;;;;;;;22.45;33.49;95046.53;6138563;28;108788;-62
2023/12/25 09:02:34;;;;;;;7.83;5.00;;;;;;;22.50;33.71;95043.72;6107421;28;109037;-60
2023/12/25 09:05:40;;;;;;;5.50;4.70;;;;;;;22.56;33.02;95015.84;6113232;28;109086;-60
2023/12/25 09:08:45;;;;;;;7.80;4.93;;;;;;;22.66;33.45;95019.03;6113874;28;109007;-60
2023/12/25 09:11:49;;;;;;;7.67;4.73;;;;;;;22.73;33.06;95020.47;6113281;28;109165;-60
2023/12/25 09:14:53;;;;;;;6.17;4.63;;;;;;;22.95;33.19;95017.69;6102378;28;109157;-77
2023/12/25 09:17:56;;;;;;;5.57;4.17;;;;;;;23.18;33.03;95021.00;6113608;28;109020;-59
2023/12/25 09:21:02;;;;;;;5.60;4.20;;;;;;;23.32;32.73;95008.31;6124832;28;110446;-60
2023/12/25 09:24:06;;;;;;;7.03;4.77;;;;;;;23.33;32.84;95001.09;6128925;28;108970;-58
2023/12/25 09:27:09;;;;;;;8.00;4.83;;;;;;;23.27;33.32;94992.44;6111906;28;109860;-59
2023/12/25 09:30:14;;;;;;;6.60;4.80;;;;;;;23.30;32.95;94992.63;6119464;28;110023;-59
2023/12/25 09:33:18;;;;;;;5.67;4.33;;;;;;;23.37;33.47;95002.06;6132967;28;110297;-58
2023/12/25 09:36:26;;;;;;;5.47;4.80;;;;;;;23.39;33.12;95002.53;6110551;28;109105;-59
2023/12/25 09:39:29;;;;;;;6.37;4.70;;;;;;;23.42;33.62;94988.53;6127585;28;109239;-59
2023/12/25 09:42:32;;;;;;;4.73;4.20;;;;;;;23.40;33.24;94994.22;6119624;28;109207;-59
2023/12/25 09:45:38;;;;;;;5.53;3.90;;;;;;;23.40;33.50;94993.41;6135716;28;109151;-59
2023/12/25 09:48:41;;;;;;;5.53;4.00;;;;;;;23.39;34.02;94989.19;6113656;28;109143;-59
2023/12/25 09:51:47;;;;;;;5.80;4.10;;;;;;;23.42;34.23;94988.53;6122270;28;109108;-59
2023/12/25 09:54:50;;;;;;;6.23;4.30;;;;;;;23.37;34.30;94978.81;6127881;28;109695;-59
2023/12/25 09:57:55;;;;;;;8.63;4.53;;;;;;;23.45;34.29;94985.25;6119505;28;110154;-57
2023/12/25 10:00:59;;;;;;;6.50;4.50;;;;;;;23.22;34.59;94977.38;6107552;28;110170;-57
2023/12/25 10:04:04;;;;;;;7.73;4.43;;;;;;;23.08;34.64;94979.41;6129105;28;109006;-57
2023/12/25 10:07:08;;;;;;;6.60;4.60;;;;;;;23.25;34.49;94979.41;6134231;28;108973;-57
2023/12/25 10:10:11;;;;;;;8.70;4.60;;;;;;;23.37;34.29;94980.69;6120616;28;110009;-58
2023/12/25 10:13:14;;;;;;;6.30;4.50;;;;;;;23.42;34.18;94978.66;6127249;28;111947;-66
2023/12/25 10:16:18;;;;;;;10.23;4.90;;;;;;;23.47;33.88;94977.69;6126108;28;109681;-59
2023/12/25 10:19:21;;;;;;;8.43;4.57;;;;;;;23.60;34.51;94982.88;6138140;28;109096;-59
2023/12/25 10:22:30;;;;;;;14.87;4.90;;;;;;;23.89;35.10;94976.06;6116245;28;111885;-58
2023/12/25 10:25:34;;;;;;;15.93;5.57;;;;;;;24.00;35.74;94977.31;6135918;28;109070;-57
2023/12/25 10:28:37;;;;;;;14.50;5.00;;;;;;;24.06;36.51;94969.91;6129692;28;109313;-63
2023/12/25 10:31:43;;;;;;;17.53;5.60;;;;;;;23.96;37.12;94967.53;6134079;28;109553;-59
2023/12/25 10:34:46;;;;;;;13.23;4.40;;;;;;;23.82;37.62;94968.50;6113346;28;110335;-57
2023/12/25 10:37:51;;;;;;;10.87;4.40;;;;;;;23.79;36.93;94950.44;6115894;28;109447;-58
2023/12/25 10:40:55;;;;;;;10.43;4.57;;;;;;;23.72;37.08;94960.84;6131083;28;110286;-57
2023/12/25 10:43:59;;;;;;;10.80;5.00;;;;;;;23.65;36.73;94955.19;6130740;28;109080;-57
2023/12/25 10:47:06;;;;;;;9.20;4.70;;;;;;;23.65;37.24;94949.06;6121662;28;109480;-57
2023/12/25 10:50:10;;;;;;;15.30;5.50;;;;;;;23.65;36.99;94943.72;6115522;28;109189;-58
2023/12/25 10:53:16;;;;;;;15.40;6.27;;;;;;;23.63;37.34;94952.06;6126921;28;110493;-58
2023/12/25 10:56:21;;;;;;;14.13;6.57;;;;;;;23.60;37.48;94944.69;6117477;28;109533;-57
2023/12/25 10:59:28;;;;;;;11.67;5.73;;;;;;;23.62;37.10;94939.03;6115593;28;108811;-58
2023/12/25 11:02:37;;;;;;;12.20;5.43;;;;;;;23.60;37.69;94934.78;6116326;28;108958;-57
2023/12/25 11:05:41;;;;;;;9.13;5.60;;;;;;;23.56;37.82;94925.06;6128821;28;109698;-57
2023/12/25 11:08:45;;;;;;;11.33;5.77;;;;;;;23.55;37.58;94936.84;6108045;28;109335;-58
2023/12/25 11:11:49;;;;;;;11.83;5.80;;;;;;;23.55;37.37;94928.84;6127193;28;109122;-58
2023/12/25 11:14:52;;;;;;;16.00;6.37;;;;;;;23.56;37.70;94938.41;6127664;28;110033;-58
2023/12/25 11:17:56;;;;;;;11.40;5.30;;;;;;;23.55;37.54;94926.16;6128460;28;109421;-58
2023/12/25 11:21:04;;;;;;;8.30;5.40;;;;;;;23.64;37.70;94932.25;6131850;28;109096;-58
2023/12/25 11:24:11;;;;;;;8.90;5.23;;;;;;;23.67;37.86;94926.28;6116783;28;108984;-58
2023/12/25 11:27:17;;;;;;;12.97;5.20;;;;;;;23.64;38.14;94926.91;6127407;28;109337;-58
2023/12/25 11:30:23;;;;;;;7.43;5.40;;;;;;;23.64;37.87;94929.59;6126177;28;109957;-59
2023/12/25 11:33:27;;;;;;;6.93;5.27;;;;;;;23.67;38.08;94928.16;6134704;28;109261;-58
2023/12/25 11:36:31;;;;;;;8.57;5.60;;;;;;;23.61;38.07;94932.91;6131028;28;110114;-57
2023/12/25 11:39:35;;;;;;;9.00;4.97;;;;;;;23.62;38.44;94926.44;6128135;28;109034;-57
2023/12/25 11:42:39;;;;;;;7.47;5.50;;;;;;;23.60;38.20;94923.31;6109893;28;110122;-57
2023/12/25 11:45:44;;;;;;;6.33;4.93;;;;;;;23.59;38.38;94929.75;6130614;28;108910;-57
2023/12/25 11:48:48;;;;;;;7.30;5.27;;;;;;;23.58;38.56;94923.63;6130946;28;109377;-58
2023/12/25 11:51:51;;;;;;;7.90;5.37;;;;;;;23.53;38.31;94926.47;6124435;28;109073;-57
2023/12/25 11:54:56;;;;;;;6.10;4.30;;;;;;;23.54;37.94;94916.59;6125418;28;109070;-56
2023/12/25 11:57:59;;;;;;;10.40;5.60;;;;;;;23.51;38.58;94922.53;6127305;28;109401;-57
2023/12/25 12:01:03;;;;;;;7.90;5.30;;;;;;;23.48;37.99;94925.84;6136402;28;109206;-56
2023/12/25 12:04:12;;;;;;;9.70;4.83;;;;;;;23.49;38.34;94924.75;6115239;28;109652;-58
2023/12/25 12:07:19;;;;;;;6.57;5.00;;;;;;;23.48;38.27;94920.50;6120270;28;109345;-58
2023/12/25 12:10:24;;;;;;;8.30;5.33;;;;;;;23.47;38.31;94922.38;6130089;28;109464;-57
2023/12/25 12:13:27;;;;;;;6.53;4.90;;;;;;;23.48;38.46;94923.97;6133700;28;109104;-57
2023/12/25 12:16:30;;;;;;;6.53;4.40;;;;;;;23.48;38.69;94920.50;6123797;28;109747;-57
2023/12/25 12:19:34;;;;;;;4.80;4.40;;;;;;;23.47;38.52;94910.94;6129591;28;108739;-56
2023/12/25 12:22:37;;;;;;;6.30;4.63;;;;;;;23.47;38.88;94908.25;6115478;28;109858;-57
2023/12/25 12:25:47;;;;;;;5.80;4.30;;;;;;;23.46;38.57;94917.38;6130569;28;110843;-58
2023/12/25 12:28:55;;;;;;;5.13;4.63;;;;;;;23.45;39.14;94913.13;6110769;28;109549;-56
2023/12/25 12:31:58;;;;;;;6.40;4.20;;;;;;;23.45;38.96;94919.25;6119934;28;109432;-56
2023/12/25 12:35:01;;;;;;;5.07;4.20;;;;;;;23.44;39.05;94909.69;6120837;28;109199;-56
2023/12/25 12:38:06;;;;;;;5.43;4.70;;;;;;;23.42;38.98;94913.78;6120456;28;108801;-56
2023/12/25 12:41:12;;;;;;;6.30;4.73;;;;;;;23.44;39.10;94916.91;6133037;28;109085;-57
2023/12/25 12:44:16;;;;;;;6.63;4.67;;;;;;;23.42;38.63;94916.44;6130402;28;110214;-68
2023/12/25 12:47:19;;;;;;;6.90;4.60;;;;;;;23.38;38.92;94928.88;6132422;28;109110;-54
2023/12/25 12:50:22;;;;;;;5.13;4.60;;;;;;;23.30;39.43;94915.19;6113323;28;110258;-53
2023/12/25 12:53:25;;;;;;;9.63;4.77;;;;;;;23.26;39.16;94922.25;6126500;28;109103;-55
2023/12/25 12:56:31;;;;;;;7.80;4.63;;;;;;;23.26;38.48;94922.25;6124326;28;109217;-55
2023/12/25 12:59:34;;;;;;;5.90;4.53;;;;;;;23.29;38.91;94913.63;6137756;28;110233;-56
2023/12/25 13:02:37;;;;;;;6.10;5.40;;;;;;;23.33;38.51;94921.00;6113081;28;109185;-58
2023/12/25 13:05:41;;;;;;;4.53;4.13;;;;;;;23.25;39.01;94919.88;6128616;28;109126;-57
2023/12/25 13:08:44;;;;;;;6.03;5.10;;;;;;;23.16;39.23;94919.88;6121744;28;109215;-56
2023/12/25 13:11:49;;;;;;;5.67;5.13;;;;;;;23.15;39.43;94915.66;6131886;28;110302;-55
2023/12/25 13:14:52;;;;;;;5.73;4.97;;;;;;;23.09;39.22;94906.25;6118994;28;109995;-53
2023/12/25 13:17:55;;;;;;;5.90;5.30;;;;;;;23.11;38.80;94916.59;6127019;28;109610;-54
2023/12/25 13:21:00;;;;;;;7.87;4.77;;;;;;;23.10;38.97;94920.38;6130760;28;109994;-55
2023/12/25 13:24:07;;;;;;;6.43;4.70;;;;;;;23.08;38.83;94920.69;6130334;28;109177;-55
2023/12/25 13:27:12;;;;;;;5.40;4.70;;;;;;;23.07;38.31;94927.13;6129920;28;109016;-55
2023/12/25 13:30:15;;;;;;;6.60;4.70;;;;;;;23.07;38.63;94923.66;6112880;28;109523;-54
2023/12/25 13:33:20;;;;;;;5.40;4.50;;;;;;;23.05;38.62;94926.66;6122727;28;109037;-53
2023/12/25 13:36:23;;;;;;;5.77;4.93;;;;;;;23.04;38.32;94927.75;6112408;28;108980;-54
2023/12/25 13:39:26;;;;;;;5.97;4.37;;;;;;;23.03;38.29;94923.53;6120877;28;110740;-56
2023/12/25 13:42:31;;;;;;;6.80;4.90;;;;;;;23.03;38.11;94928.84;6128575;28;109532;-55
2023/12/25 13:45:34;;;;;;;5.57;5.00;;;;;;;23.04;37.58;94919.75;6137134;28;109124;-55
2023/12/25 13:48:37;;;;;;;6.07;4.40;;;;;;;23.10;37.91;94923.81;6114169;28;109721;-54
2023/12/25 13:51:41;;;;;;;5.90;4.77;;;;;;;23.16;37.99;94917.22;6129410;28;110006;-55
2023/12/25 13:54:44;;;;;;;4.83;4.33;;;;;;;23.24;37.50;94929.78;6120006;28;108853;-54
2023/12/25 13:57:49;;;;;;;6.43;4.70;;;;;;;23.28;37.87;94920.03;6132760;28;109769;-54
2023/12/25 14:00:52;;;;;;;5.27;4.77;;;;;;;23.31;37.98;94929.31;6118250;28;110507;-55
2023/12/25 14:03:55;;;;;;;9.53;4.80;;;;;;;23.30;37.90;94933.88;6127409;28;112673;-55
2023/12/25 14:06:59;;;;;;;6.37;5.07;;;;;;;23.31;38.22;94934.66;6127811;28;109076;-55
2023/12/25 14:10:05;;;;;;;6.93;5.37;;;;;;;23.29;37.94;94928.84;6112635;28;109307;-57